Time;durP1;ratioP1;P1;durP2;ratioP2;P2;SDS_P1;SDS_P2;PMS_P1;PMS_P2;Temp;Humidity;BMP_temperature;BMP_pressure;BME280_temperature;BME280_humidity;BME280_pressure;Samples;Min_cycle;Max_cycle;Signal;HPM_P1;HPM_P2
2021/08/04 00:01:56;;;;;;;;;;;15.00;99.90;;;13.67;98.44;100973.50;3530283;39;102235;-40
2021/08/04 00:04:23;;;;;;;;;;;15.00;99.90;;;13.71;98.49;100973.84;3529774;39;102352;-39
2021/08/04 00:06:50;;;;;;;;;;;15.00;99.90;;;13.71;98.68;100965.63;3530059;39;102325;-40
2021/08/04 00:09:17;;;;;;;;;;;15.10;99.90;;;13.73;98.69;100964.34;3530425;39;103009;-39
2021/08/04 00:11:45;;;;;;;;;;;15.10;99.90;;;13.73;98.71;100971.72;3530371;39;103656;-40
2021/08/04 00:14:13;;;;;;;;;;;15.00;99.90;;;13.72;98.53;100964.56;3530528;39;103098;-39
2021/08/04 00:16:40;;;;;;;;;;;15.10;99.90;;;13.71;98.47;100966.47;3530437;39;102618;-39
2021/08/04 00:19:08;;;;;;;;;;;15.10;99.90;;;13.69;98.33;100968.63;3530286;39;102359;-39
2021/08/04 00:21:35;;;;;;;;;;;15.00;99.90;;;13.68;98.37;100968.81;3530126;39;102444;-40
2021/08/04 00:24:02;;;;;;;;;;;15.00;99.90;;;13.65;98.11;100968.22;3529650;39;102152;-40
2021/08/04 00:26:29;;;;;;;;;;;15.00;99.90;;;13.62;97.85;100965.09;3530259;39;102292;-39
2021/08/04 00:28:56;;;;;;;;;;;15.00;99.90;;;13.59;97.92;100962.81;3530301;39;102204;-39
2021/08/04 00:31:24;;;;;;;;;;;14.90;99.90;;;13.55;97.73;100962.44;3531057;39;102178;-40
2021/08/04 00:33:51;;;;;;;;;;;14.90;99.90;;;13.52;97.29;100957.41;3530760;39;102134;-39
2021/08/04 00:36:19;;;;;;;;;;;14.90;99.90;;;13.47;97.06;100952.63;3530607;39;102319;-40
2021/08/04 00:38:46;;;;;;;;;;;14.80;99.90;;;13.42;96.95;100948.84;3530999;39;103980;-40
2021/08/04 00:41:13;;;;;;;;;;;14.80;99.90;;;13.38;96.37;100943.84;3531008;39;102371;-41
2021/08/04 00:43:41;;;;;;;;;;;14.80;99.90;;;13.32;95.78;100954.88;3531046;39;102887;-40
2021/08/04 00:46:12;;;;;;;;;;;14.70;99.90;;;13.23;95.51;100944.22;3521893;39;103683;-39
2021/08/04 00:48:41;;;;;;;;;;;14.60;99.90;;;13.18;95.30;100945.97;3521890;39;103101;-41
2021/08/04 00:51:08;;;;;;;;;;;14.60;99.90;;;13.14;95.07;100947.47;3531110;39;102856;-40
2021/08/04 00:53:36;;;;;;;;;;;14.50;99.90;;;13.04;94.83;100934.31;3521553;39;105585;-40
2021/08/04 00:56:08;;;;;;;;;;;14.50;99.90;;;13.02;94.69;100945.50;3530802;39;102301;-40
2021/08/04 00:58:39;;;;;;;;;;;14.50;99.90;;;12.95;94.41;100947.44;3522044;39;104070;-39
2021/08/04 01:01:18;;;;;;;;;;;14.40;99.90;;;12.86;94.27;100940.59;3521714;39;103877;-39
2021/08/04 01:03:50;;;;;;;;;;;14.30;99.90;;;12.76;94.48;100941.94;3521473;39;102316;-39
2021/08/04 01:06:26;;;;;;;;;;;14.20;99.90;;;12.66;94.67;100947.91;3530497;39;102745;-39
2021/08/04 01:08:57;;;;;;;;;;;14.10;99.90;;;12.59;94.48;100958.06;3530773;39;104226;-40
2021/08/04 01:11:31;;;;;;;;;;;14.00;99.90;;;12.52;94.16;100958.13;3530719;39;102149;-40
2021/08/04 01:14:02;;;;;;;;;;;14.00;99.90;;;12.46;94.38;100963.66;3530542;39;102317;-42
2021/08/04 01:16:36;;;;;;;;;;;13.90;99.90;;;12.37;94.18;100966.66;3521766;39;104396;-39
2021/08/04 01:19:29;;;;;;;;;;;13.80;99.90;;;12.30;94.50;100976.78;3530614;39;104010;-40
2021/08/04 01:22:47;;;;;;;;;;;13.80;99.90;;;12.24;94.37;100972.22;3530974;39;102222;-39
2021/08/04 01:25:17;;;;;;;;;;;13.70;99.90;;;12.15;94.23;100971.63;3479434;40;103079;-39
2021/08/04 01:27:50;;;;;;;;;;;13.60;99.90;;;12.09;94.28;100975.25;3521631;39;102780;-39
2021/08/04 01:30:20;;;;;;;;;;;13.50;99.90;;;11.97;93.96;100966.88;3530588;39;102282;-40
2021/08/04 01:32:48;;;;;;;;;;;13.50;99.90;;;11.96;94.31;100967.91;3530421;39;102339;-40
2021/08/04 01:35:16;;;;;;;;;;;13.40;99.90;;;11.91;94.41;100973.22;3521354;39;104211;-41
2021/08/04 01:37:46;;;;;;;;;;;13.40;99.90;;;11.87;94.53;100975.53;3521641;39;104301;-39
2021/08/04 01:40:14;;;;;;;;;;;13.30;99.90;;;11.82;94.36;100975.34;3521207;39;104539;-39
2021/08/04 01:42:42;;;;;;;;;;;13.30;99.90;;;11.78;94.32;100968.66;3530430;39;102513;-39
2021/08/04 01:45:11;;;;;;;;;;;13.30;99.90;;;11.69;94.30;100964.50;3530749;39;103234;-39
2021/08/04 01:47:42;;;;;;;;;;;13.20;99.90;;;11.69;94.04;100970.78;3530671;39;102803;-39
2021/08/04 01:50:10;;;;;;;;;;;13.20;99.90;;;11.65;93.98;100970.38;3521394;39;103149;-40
2021/08/04 01:52:38;;;;;;;;;;;13.20;99.90;;;11.62;94.05;100969.97;3530832;39;102169;-39
2021/08/04 01:55:07;;;;;;;;;;;13.10;99.90;;;11.56;94.35;100965.38;3530480;39;102684;-40
2021/08/04 01:57:34;;;;;;;;;;;13.10;99.90;;;11.51;94.48;100969.56;3530554;39;102695;-39
2021/08/04 02:00:02;;;;;;;;;;;13.00;99.90;;;11.50;94.78;100967.91;3530636;39;104173;-39
2021/08/04 02:02:39;;;;;;;;;;;13.00;99.90;;;11.47;94.71;100962.03;3530666;39;102298;-39
2021/08/04 02:05:08;;;;;;;;;;;13.00;99.90;;;11.41;94.63;100965.63;3521114;39;103962;-40
2021/08/04 02:08:06;;;;;;;;;;;12.90;99.90;;;11.41;94.73;100961.00;3530524;39;102187;-39
2021/08/04 02:10:50;;;;;;;;;;;12.90;99.90;;;11.36;94.72;100958.91;3530485;39;102286;-39
2021/08/04 02:13:35;;;;;;;;;;;12.90;99.90;;;11.37;94.95;100951.56;3658314;22;103430;-39
2021/08/04 02:16:39;;;;;;;;;;;12.90;99.90;;;11.36;95.12;100949.88;3529355;39;102462;-40
2021/08/04 02:19:19;;;;;;;;;;;12.90;99.90;;;11.35;95.38;100949.03;3530798;39;102385;-40
2021/08/04 02:21:54;;;;;;;;;;;12.80;99.90;;;11.32;95.21;100946.72;3531039;39;104026;-40
2021/08/04 02:24:24;;;;;;;;;;;12.80;99.90;;;11.29;95.01;100949.06;3530474;39;102271;-40
2021/08/04 02:26:54;;;;;;;;;;;12.70;99.90;;;11.26;95.26;100944.00;3530875;39;102685;-40
2021/08/04 02:29:23;;;;;;;;;;;12.70;99.90;;;11.23;95.14;100948.84;3530567;39;102371;-40
2021/08/04 02:31:50;;;;;;;;;;;12.70;99.90;;;11.20;95.03;100946.56;3529695;39;102329;-40
2021/08/04 02:34:19;;;;;;;;;;;12.70;99.90;;;11.19;95.07;100944.88;3530122;39;102664;-40
2021/08/04 02:36:46;;;;;;;;;;;12.70;99.90;;;11.15;95.38;100935.44;3531108;39;102299;-40
2021/08/04 02:39:14;;;;;;;;;;;12.70;99.90;;;11.20;95.21;100938.34;3530810;39;102289;-40
2021/08/04 02:41:43;;;;;;;;;;;12.60;99.90;;;11.22;95.75;100938.97;3530865;39;102155;-40
2021/08/04 02:44:11;;;;;;;;;;;12.70;99.90;;;11.24;95.92;100941.50;3530624;39;102216;-40
2021/08/04 02:46:38;;;;;;;;;;;12.70;99.90;;;11.24;96.11;100936.06;3530590;39;102228;-40
2021/08/04 02:49:06;;;;;;;;;;;12.70;99.90;;;11.23;95.85;100931.66;3530482;39;102151;-40
2021/08/04 02:51:34;;;;;;;;;;;12.70;99.90;;;11.22;96.14;100929.97;3530565;39;103108;-40
2021/08/04 02:54:01;;;;;;;;;;;12.70;99.90;;;11.19;96.35;100927.66;3529882;39;103632;-39
2021/08/04 02:56:28;;;;;;;;;;;12.70;99.90;;;11.16;96.02;100931.66;3530733;39;103882;-40
2021/08/04 02:58:55;;;;;;;;;;;12.60;99.90;;;11.10;95.86;100934.38;3530495;39;102182;-40
2021/08/04 03:01:23;;;;;;;;;;;12.60;99.90;;;11.06;95.90;100928.53;3530522;39;102179;-40
2021/08/04 03:03:50;;;;;;;;;;;12.60;99.90;;;10.97;95.90;100936.09;3530715;39;102241;-40
2021/08/04 03:06:17;;;;;;;;;;;12.50;99.90;;;10.96;95.98;100928.97;3530548;39;102172;-40
2021/08/04 03:08:44;;;;;;;;;;;12.50;99.90;;;10.93;96.04;100943.03;3530594;39;102154;-40
2021/08/04 03:11:12;;;;;;;;;;;12.40;99.90;;;10.90;95.94;100940.75;3530394;39;102196;-39
2021/08/04 03:13:39;;;;;;;;;;;12.40;99.90;;;10.86;95.85;100940.31;3530561;39;102716;-40
2021/08/04 03:16:06;;;;;;;;;;;12.40;99.90;;;10.85;95.85;100945.97;3530797;39;103191;-40
2021/08/04 03:18:33;;;;;;;;;;;12.40;99.90;;;10.83;96.09;100937.16;3529798;39;103249;-40
2021/08/04 03:21:01;;;;;;;;;;;12.30;99.90;;;10.79;96.15;100939.50;3530378;39;104256;-40
2021/08/04 03:23:28;;;;;;;;;;;12.30;99.90;;;10.76;96.20;100940.75;3530299;39;102203;-40
2021/08/04 03:25:55;;;;;;;;;;;12.30;99.90;;;10.74;95.99;100947.44;3529932;39;102250;-40
2021/08/04 03:28:22;;;;;;;;;;;12.20;99.90;;;10.70;96.12;100947.03;3531051;39;102273;-40
2021/08/04 03:30:50;;;;;;;;;;;12.20;99.90;;;10.65;95.67;100950.41;3530661;39;103073;-40
2021/08/04 03:33:17;;;;;;;;;;;12.20;99.90;;;10.59;95.95;100953.97;3530686;39;102413;-40
2021/08/04 03:35:44;;;;;;;;;;;12.10;99.90;;;10.58;95.93;100954.16;3530293;39;102182;-40
2021/08/04 03:38:11;;;;;;;;;;;12.10;99.90;;;10.56;95.81;100948.94;3530228;39;102398;-40
2021/08/04 03:40:38;;;;;;;;;;;12.10;99.90;;;10.55;96.38;100952.72;3530222;39;103512;-40
2021/08/04 03:43:05;;;;;;;;;;;12.10;99.90;;;10.53;96.43;100964.88;3530673;39;102527;-40
2021/08/04 03:45:33;;;;;;;;;;;12.00;99.90;;;10.49;96.56;100959.84;3529869;39;102195;-40
2021/08/04 03:48:00;;;;;;;;;;;12.00;99.90;;;10.48;96.34;100960.88;3530138;39;102321;-40
2021/08/04 03:50:27;;;;;;;;;;;12.00;99.90;;;10.46;96.53;100963.00;3529977;39;102362;-40
2021/08/04 03:52:54;;;;;;;;;;;12.00;99.90;;;10.45;96.20;100958.59;3529969;39;102168;-40
2021/08/04 03:55:22;;;;;;;;;;;12.00;99.90;;;10.43;96.61;100963.41;3529941;39;104358;-40
2021/08/04 03:57:49;;;;;;;;;;;12.00;99.90;;;10.42;96.42;100963.59;3530197;39;102153;-40
2021/08/04 04:00:16;;;;;;;;;;;12.00;99.90;;;10.38;96.25;100956.84;3530802;39;103063;-40
2021/08/04 04:02:43;;;;;;;;;;;11.90;99.90;;;10.40;96.38;100958.38;3530409;39;102432;-40
2021/08/04 04:05:11;;;;;;;;;;;11.90;99.90;;;10.33;96.44;100952.88;3529944;39;102205;-40
2021/08/04 04:07:38;;;;;;;;;;;11.90;99.90;;;10.33;96.58;100952.00;3530364;39;102424;-40
2021/08/04 04:10:07;;;;;;;;;;;11.90;99.90;;;10.36;96.06;100962.53;3530381;39;102680;-40
2021/08/04 04:12:34;;;;;;;;;;;11.90;99.90;;;10.35;96.24;100960.84;3530125;39;102396;-40
2021/08/04 04:15:05;;;;;;;;;;;11.90;99.90;;;10.31;96.29;100965.03;3529201;39;122928;-40
2021/08/04 04:17:32;;;;;;;;;;;11.90;99.90;;;10.33;96.81;100971.09;3530766;39;102439;-40
2021/08/04 04:19:59;;;;;;;;;;;11.80;99.90;;;10.35;96.64;100969.03;3529983;39;104135;-40
2021/08/04 04:22:27;;;;;;;;;;;11.90;99.90;;;10.39;97.32;100966.72;3530442;39;102054;-40
2021/08/04 04:24:54;;;;;;;;;;;11.90;99.90;;;10.42;97.50;100972.63;3529816;39;102317;-40
2021/08/04 04:27:21;;;;;;;;;;;11.90;99.90;;;10.49;97.97;100976.22;3530104;39;102363;-40
2021/08/04 04:29:48;;;;;;;;;;;12.00;99.90;;;10.50;97.92;100980.63;3530015;39;103086;-40
2021/08/04 04:32:15;;;;;;;;;;;12.00;99.90;;;10.58;98.25;100989.63;3529627;39;102110;-40
2021/08/04 04:34:42;;;;;;;;;;;12.10;99.90;;;10.65;98.28;100985.03;3529978;39;102142;-40
2021/08/04 04:37:10;;;;;;;;;;;12.10;99.90;;;10.75;99.08;100982.72;3529772;39;102424;-40
2021/08/04 04:39:38;;;;;;;;;;;12.10;99.90;;;10.88;99.25;100991.97;3530019;39;102321;-40
2021/08/04 04:42:05;;;;;;;;;;;12.30;99.90;;;10.99;99.83;100987.75;3529960;39;102515;-40
2021/08/04 04:44:32;;;;;;;;;;;12.40;99.90;;;11.04;100.00;100985.25;3530154;39;103050;-40
2021/08/04 04:46:59;;;;;;;;;;;12.40;99.90;;;11.15;100.00;101000.16;3530021;39;102093;-40
2021/08/04 04:49:27;;;;;;;;;;;12.50;99.90;;;11.24;100.00;100996.13;3529855;39;102305;-40
2021/08/04 04:51:54;;;;;;;;;;;12.60;99.90;;;11.30;100.00;100995.28;3529785;39;102402;-40
2021/08/04 04:54:21;;;;;;;;;;;12.70;99.90;;;11.37;100.00;100998.00;3529530;39;102100;-40
2021/08/04 04:56:49;;;;;;;;;;;12.70;99.90;;;11.44;100.00;100987.06;3529847;39;102410;-40
2021/08/04 04:59:16;;;;;;;;;;;12.80;99.90;;;11.51;100.00;100991.44;3529902;39;104226;-40
2021/08/04 05:01:43;;;;;;;;;;;12.80;99.90;;;11.58;100.00;100996.88;3530062;39;102612;-40
2021/08/04 05:04:10;;;;;;;;;;;12.90;99.90;;;11.65;100.00;101000.41;3529717;39;103070;-40
2021/08/04 05:06:38;;;;;;;;;;;13.00;99.90;;;11.73;100.00;100998.53;3529813;39;102365;-40
2021/08/04 05:09:05;;;;;;;;;;;13.10;99.90;;;11.80;100.00;101000.19;3529676;39;103391;-40
2021/08/04 05:11:32;;;;;;;;;;;13.10;99.90;;;11.89;100.00;100999.94;3529725;39;102365;-40
2021/08/04 05:13:59;;;;;;;;;;;13.20;99.90;;;11.98;100.00;100998.63;3529475;39;103099;-39
2021/08/04 05:16:27;;;;;;;;;;;13.30;99.90;;;12.07;100.00;101005.56;3530493;39;102319;-40
2021/08/04 05:18:54;;;;;;;;;;;13.40;99.90;;;12.17;100.00;101006.97;3531058;39;104280;-40
2021/08/04 05:21:22;;;;;;;;;;;13.50;99.90;;;12.26;100.00;101011.13;3530823;39;102313;-40
2021/08/04 05:23:49;;;;;;;;;;;13.50;99.90;;;12.37;100.00;101015.06;3530476;39;102824;-38
2021/08/04 05:26:16;;;;;;;;;;;13.60;99.90;;;12.50;100.00;101016.88;3530978;39;102798;-40
2021/08/04 05:28:43;;;;;;;;;;;13.70;99.90;;;12.69;100.00;101017.78;3531070;39;103892;-40
2021/08/04 05:31:11;;;;;;;;;;;13.90;99.90;;;12.82;100.00;101016.03;3531049;39;102348;-40
2021/08/04 05:33:38;;;;;;;;;;;14.00;99.90;;;12.90;100.00;101013.00;3521395;39;102651;-40
2021/08/04 05:36:05;;;;;;;;;;;14.10;99.90;;;12.97;100.00;101005.56;3530764;39;102495;-40
2021/08/04 05:38:33;;;;;;;;;;;14.20;99.90;;;13.03;100.00;101012.03;3530754;39;102348;-40
2021/08/04 05:41:00;;;;;;;;;;;14.30;99.90;;;13.07;100.00;101008.66;3530795;39;102647;-40
2021/08/04 05:43:27;;;;;;;;;;;14.30;99.90;;;13.09;100.00;101006.53;3531115;39;103118;-40
2021/08/04 05:45:54;;;;;;;;;;;14.30;99.90;;;13.13;100.00;101003.31;3530861;39;102415;-40
2021/08/04 05:48:22;;;;;;;;;;;14.40;99.90;;;13.14;100.00;100997.63;3531106;39;103164;-40
2021/08/04 05:50:49;;;;;;;;;;;14.40;99.90;;;13.14;100.00;100997.63;3530871;39;102152;-40
2021/08/04 05:53:16;;;;;;;;;;;14.40;99.90;;;13.20;100.00;101013.16;3531039;39;102308;-40
2021/08/04 05:55:44;;;;;;;;;;;14.50;99.90;;;13.27;100.00;101012.25;3530977;39;102831;-40
2021/08/04 05:58:11;;;;;;;;;;;14.50;99.90;;;13.34;100.00;101016.59;3531053;39;102282;-40
2021/08/04 06:00:38;;;;;;;;;;;14.50;99.90;;;13.38;99.97;101008.75;3531031;39;102399;-40
2021/08/04 06:03:05;;;;;;;;;;;14.60;99.90;;;13.48;99.57;101009.13;3530747;39;103275;-40
2021/08/04 06:05:33;;;;;;;;;;;14.70;99.90;;;13.62;99.56;101022.66;3530444;39;102198;-40
2021/08/04 06:08:00;;;;;;;;;;;14.80;99.90;;;13.71;99.51;101028.69;3531106;39;104115;-40
2021/08/04 06:10:28;;;;;;;;;;;14.90;99.90;;;13.78;99.07;101029.44;3530801;39;102224;-40
2021/08/04 06:12:55;;;;;;;;;;;14.90;99.90;;;13.91;98.86;101026.53;3531158;39;102322;-43
2021/08/04 06:15:37;;;;;;;;;;;15.00;99.90;;;14.03;97.50;101025.75;3530651;39;102301;-40
2021/08/04 06:18:05;;;;;;;;;;;15.20;99.90;;;14.09;97.26;101022.13;3530494;39;102061;-41
2021/08/04 06:20:32;;;;;;;;;;;15.30;99.90;;;14.17;96.69;101023.69;3530995;39;102981;-40
2021/08/04 06:23:00;;;;;;;;;;;15.30;99.90;;;14.21;96.20;101028.47;3530636;39;102316;-40
2021/08/04 06:25:27;;;;;;;;;;;15.30;99.90;;;14.30;96.04;101030.88;3530397;39;102143;-41
2021/08/04 06:27:54;;;;;;;;;;;15.40;99.90;;;14.38;96.38;101028.66;3530217;39;102287;-40
2021/08/04 06:30:22;;;;;;;;;;;15.50;99.90;;;14.49;96.44;101034.44;3530771;39;102287;-40
2021/08/04 06:32:50;;;;;;;;;;;15.50;99.90;;;14.58;96.16;101032.19;3530809;39;102263;-40
2021/08/04 06:35:17;;;;;;;;;;;15.60;99.90;;;14.68;95.74;101029.72;3530451;39;102137;-40
2021/08/04 06:37:44;;;;;;;;;;;15.80;99.90;;;14.78;96.03;101031.91;3530588;39;102114;-40
2021/08/04 06:40:12;;;;;;;;;;;15.80;99.90;;;14.86;95.65;101034.31;3530675;39;102438;-40
2021/08/04 06:42:40;;;;;;;;;;;15.90;99.90;;;14.96;94.57;101034.56;3530435;39;102454;-40
2021/08/04 06:45:09;;;;;;;;;;;16.00;99.90;;;15.08;94.24;101042.81;3530427;39;102406;-40
2021/08/04 06:47:36;;;;;;;;;;;16.10;99.90;;;15.21;93.85;101049.19;3530637;39;103846;-40
2021/08/04 06:50:04;;;;;;;;;;;16.20;99.90;;;15.22;91.84;101042.59;3530673;39;102386;-40
2021/08/04 06:52:31;;;;;;;;;;;16.30;99.90;;;15.28;90.13;101054.56;3530753;39;102107;-40
2021/08/04 06:54:58;;;;;;;;;;;16.30;99.90;;;15.33;88.88;101052.75;3530429;39;102078;-40
2021/08/04 06:57:26;;;;;;;;;;;16.40;99.90;;;15.48;89.68;101049.50;3530944;39;102423;-40
2021/08/04 06:59:53;;;;;;;;;;;16.40;99.90;;;15.63;89.34;101057.28;3530404;39;102889;-41
2021/08/04 07:02:20;;;;;;;;;;;16.60;99.90;;;15.73;89.47;101051.16;3530725;39;103928;-40
2021/08/04 07:04:48;;;;;;;;;;;16.70;99.90;;;15.84;90.13;101054.97;3530413;39;102239;-40
2021/08/04 07:07:16;;;;;;;;;;;16.90;99.90;;;15.89;87.32;101052.34;3530718;39;102704;-40
2021/08/04 07:09:44;;;;;;;;;;;16.90;99.90;;;15.95;86.71;101061.56;3530499;39;102456;-40
2021/08/04 07:12:11;;;;;;;;;;;16.90;99.90;;;16.14;87.47;101055.91;3530833;39;102284;-40
2021/08/04 07:14:38;;;;;;;;;;;17.10;99.90;;;16.22;85.54;101053.59;3530388;39;102368;-40
2021/08/04 07:17:06;;;;;;;;;;;17.20;99.90;;;16.25;85.13;101055.00;3530842;39;104382;-40
2021/08/04 07:19:34;;;;;;;;;;;17.20;99.90;;;16.31;85.55;101054.06;3530537;39;102469;-40
2021/08/04 07:22:02;;;;;;;;;;;17.30;99.90;;;16.41;84.60;101058.88;3530312;39;103337;-40
2021/08/04 07:24:30;;;;;;;;;;;17.30;99.90;;;16.49;84.04;101054.91;3530408;39;102248;-40
2021/08/04 07:26:57;;;;;;;;;;;17.40;99.90;;;16.59;83.82;101057.03;3530828;39;103388;-40
2021/08/04 07:29:24;;;;;;;;;;;17.50;99.90;;;16.72;84.46;101048.47;3529567;39;102692;-40
2021/08/04 07:31:52;;;;;;;;;;;17.60;99.90;;;16.74;83.58;101050.94;3530448;39;102339;-40
2021/08/04 07:34:22;;;;;;;;;;;17.60;99.90;;;16.86;83.44;101046.22;3530418;39;102620;-40
2021/08/04 07:36:49;;;;;;;;;;;17.80;99.90;;;16.99;80.49;101049.75;3530514;39;102396;-40
2021/08/04 07:39:17;;;;;;;;;;;17.90;99.90;;;17.05;78.01;101043.22;3530207;39;102599;-41
2021/08/04 07:41:45;;;;;;;;;;;18.00;99.90;;;17.15;80.27;101039.81;3530318;39;102266;-40
2021/08/04 07:44:12;;;;;;;;;;;18.10;99.90;;;17.35;80.76;101045.66;3530400;39;102264;-39
2021/08/04 07:46:51;;;;;;;;;;;18.20;99.90;;;17.52;78.76;101050.31;3530462;39;103014;-40
2021/08/04 07:49:19;;;;;;;;;;;18.40;99.90;;;17.55;74.96;101049.78;3530100;39;102933;-41
2021/08/04 07:51:46;;;;;;;;;;;18.40;99.90;;;17.68;74.58;101043.91;3530156;39;103214;-40
2021/08/04 07:54:14;;;;;;;;;;;18.50;99.90;;;17.82;74.66;101043.53;3530231;39;102786;-41
2021/08/04 07:56:41;;;;;;;;;;;18.60;99.90;;;17.87;75.12;101045.50;3530189;39;102475;-40
2021/08/04 07:59:09;;;;;;;;;;;18.70;99.90;;;18.02;75.73;101036.63;3530594;39;102284;-40
2021/08/04 08:01:39;;;;;;;;;;;18.80;99.90;;;18.20;72.37;101041.00;3530548;39;102166;-40
2021/08/04 08:04:07;;;;;;;;;;;19.00;99.90;;;18.32;72.86;101032.56;3529862;39;102406;-40
2021/08/04 08:06:34;;;;;;;;;;;19.10;99.90;;;18.52;74.40;101035.50;3530220;39;102968;-40
2021/08/04 08:09:01;;;;;;;;;;;19.30;99.90;;;18.68;74.03;101030.97;3530254;39;102309;-40
2021/08/04 08:11:29;;;;;;;;;;;19.50;99.90;;;18.75;71.14;101027.16;3529988;39;104012;-40
2021/08/04 08:13:56;;;;;;;;;;;19.50;99.90;;;18.98;73.73;101034.28;3662429;22;106641;-42
2021/08/04 08:16:24;;;;;;;;;;;19.70;99.90;;;19.14;74.61;101031.66;3536201;39;102400;-39
2021/08/04 08:18:55;;;;;;;;;;;19.80;99.90;;;19.24;69.91;101028.97;3530934;39;102670;-39
2021/08/04 08:21:23;;;;;;;;;;;19.90;99.90;;;19.24;71.43;101024.28;3530362;39;102143;-39
2021/08/04 08:23:51;;;;;;;;;;;20.00;99.90;;;19.15;68.63;101020.31;3529931;39;102125;-40
2021/08/04 08:26:22;;;;;;;;;;;20.10;99.90;;;19.34;70.05;101023.47;3530235;39;102236;-39
2021/08/04 08:28:50;;;;;;;;;;;20.10;99.90;;;19.33;69.13;101018.22;3530423;39;102848;-39
2021/08/04 08:31:17;;;;;;;;;;;20.10;99.90;;;19.21;68.29;101024.78;3529998;39;103240;-39
2021/08/04 08:33:44;;;;;;;;;;;20.20;99.90;;;19.36;68.87;101028.75;3529339;39;102884;-39
2021/08/04 08:36:12;;;;;;;;;;;20.20;99.90;;;19.53;67.70;101026.66;3530087;39;102421;-39
2021/08/04 08:38:39;;;;;;;;;;;20.30;99.90;;;19.67;69.78;101024.25;3530220;39;102440;-39
2021/08/04 08:41:07;;;;;;;;;;;20.50;99.90;;;19.65;65.96;101023.69;3530191;39;102779;-39
2021/08/04 08:43:35;;;;;;;;;;;20.50;99.90;;;19.77;65.16;101022.59;3530089;39;102135;-40
2021/08/04 08:46:04;;;;;;;;;;;20.50;99.90;;;19.74;66.07;101017.63;3529922;39;103358;-39
2021/08/04 08:48:31;;;;;;;;;;;20.60;99.90;;;19.65;65.03;101011.75;3530091;39;102124;-39
2021/08/04 08:50:59;;;;;;;;;;;20.60;99.90;;;19.68;62.90;101014.84;3530913;39;102727;-39
2021/08/04 08:53:26;;;;;;;;;;;20.60;99.90;;;20.00;65.39;101020.53;3531325;39;102243;-39
2021/08/04 08:55:54;;;;;;;;;;;20.70;99.90;;;20.22;64.07;101021.16;3531660;39;102272;-39
2021/08/04 08:58:21;;;;;;;;;;;20.90;99.90;;;20.46;65.52;101012.34;3531319;39;102255;-39
2021/08/04 09:00:48;;;;;;;;;;;21.10;99.90;;;20.78;66.03;101011.25;3531041;39;102268;-44
2021/08/04 09:03:18;;;;;;;;;;;21.30;99.90;;;20.92;64.93;101013.47;3531053;39;102246;-39
2021/08/04 09:05:50;;;;;;;;;;;21.50;99.90;;;21.13;60.82;100998.47;3531165;39;104092;-39
2021/08/04 09:08:23;;;;;;;;;;;21.70;99.90;;;21.38;61.45;101013.41;3531421;39;102368;-39
2021/08/04 09:10:51;;;;;;;;;;;21.90;99.90;;;21.67;62.12;101006.44;3531484;39;103299;-40
2021/08/04 09:13:29;;;;;;;;;;;22.20;99.90;;;21.77;59.40;101005.56;3531279;39;102161;-39
2021/08/04 09:16:09;;;;;;;;;;;22.30;99.90;;;21.88;58.57;101006.31;3531259;39;102265;-40
2021/08/04 09:18:53;;;;;;;;;;;22.50;99.90;;;21.77;58.66;101017.50;3531565;39;102984;-39
2021/08/04 09:21:22;;;;;;;;;;;22.50;99.90;;;21.82;59.74;101013.88;3531021;39;103078;-38
2021/08/04 09:23:52;;;;;;;;;;;22.50;99.90;;;21.92;57.84;101007.44;3530959;39;102237;-40
2021/08/04 09:26:24;;;;;;;;;;;22.60;99.90;;;21.79;56.93;101008.88;3531675;39;102261;-39
2021/08/04 09:29:09;;;;;;;;;;;22.60;99.90;;;21.88;56.61;100998.00;3531106;39;102344;-39
2021/08/04 09:31:40;;;;;;;;;;;22.50;99.90;;;21.90;58.23;101001.34;3531627;39;102284;-40
2021/08/04 09:34:27;;;;;;;;;;;22.50;99.90;;;21.92;59.90;101001.91;3531158;39;102634;-40
2021/08/04 09:37:03;;;;;;;;;;;22.60;99.90;;;22.10;58.08;101000.41;3531184;39;103105;-40
2021/08/04 09:39:32;;;;;;;;;;;22.70;99.90;;;22.01;56.78;100991.84;3530683;39;102196;-40
2021/08/04 09:42:01;;;;;;;;;;;22.80;99.90;;;22.04;52.62;100993.22;3531381;39;103943;-40
2021/08/04 09:44:29;;;;;;;;;;;22.80;99.90;;;22.02;52.59;100992.69;3530723;39;102535;-39
2021/08/04 09:47:10;;;;;;;;;;;22.80;99.90;;;22.04;56.15;100979.34;3530754;39;102349;-40
2021/08/04 09:49:41;;;;;;;;;;;22.80;99.90;;;21.88;52.02;100989.66;3531620;39;102119;-40
2021/08/04 09:52:12;;;;;;;;;;;22.80;99.90;;;21.87;54.00;100991.63;3531296;39;102345;-39
2021/08/04 09:54:43;;;;;;;;;;;22.80;99.90;;;21.84;54.86;100993.03;3531357;39;102441;-39
2021/08/04 09:57:11;;;;;;;;;;;22.80;99.90;;;21.93;54.06;100990.47;3530958;39;102368;-40
2021/08/04 09:59:39;;;;;;;;;;;22.70;99.90;;;21.91;56.20;100984.38;3531137;39;102097;-37
2021/08/04 10:02:29;;;;;;;;;;;22.70;99.90;;;22.04;49.88;100980.16;3530490;39;102559;-39
2021/08/04 10:05:22;;;;;;;;;;;22.80;99.90;;;22.36;55.28;100975.25;3531213;39;102481;-39
2021/08/04 10:08:10;;;;;;;;;;;22.90;99.90;;;22.58;52.74;100977.59;3531456;39;102255;-40
2021/08/04 10:10:40;;;;;;;;;;;23.10;99.90;;;22.55;53.76;100984.59;3530919;39;102262;-37
2021/08/04 10:13:18;;;;;;;;;;;23.30;99.90;;;22.55;51.20;100979.03;3531181;39;104124;-41
2021/08/04 10:15:53;;;;;;;;;;;23.30;99.90;;;22.61;51.64;100978.97;3530944;39;102430;-41
2021/08/04 10:18:23;;;;;;;;;;;23.30;99.90;;;22.47;54.86;100984.38;3531418;39;104117;-40
2021/08/04 10:20:57;;;;;;;;;;;23.30;99.90;;;22.19;50.29;100982.00;3530986;39;102510;-40
2021/08/04 10:23:25;;;;;;;;;;;23.20;99.90;;;22.31;51.74;100973.31;3530095;39;103202;-39
2021/08/04 10:25:55;;;;;;;;;;;23.30;99.90;;;22.39;49.68;100981.03;3529567;39;102924;-41
2021/08/04 10:28:26;;;;;;;;;;;23.30;99.90;;;22.61;49.01;100982.56;3531389;39;103914;-40
2021/08/04 10:30:54;;;;;;;;;;;23.40;99.90;;;22.79;49.35;100975.47;3530475;39;102242;-41
2021/08/04 10:33:22;;;;;;;;;;;23.50;99.90;;;23.17;53.58;100976.78;3531003;39;104217;-39
2021/08/04 10:35:57;;;;;;;;;;;23.70;99.90;;;23.56;53.07;100973.88;3530657;39;102529;-40
2021/08/04 10:38:26;;;;;;;;;;;24.00;99.90;;;23.65;46.60;100973.19;3530635;39;102307;-39
2021/08/04 10:41:17;;;;;;;;;;;24.20;99.90;;;24.02;51.03;100968.84;3531104;39;102254;-40
2021/08/04 10:44:00;;;;;;;;;;;24.40;99.90;;;24.14;47.75;100962.84;3530714;39;103116;-40
2021/08/04 10:46:28;;;;;;;;;;;24.50;99.90;;;24.23;47.73;100972.16;3530969;39;102396;-37
2021/08/04 10:49:04;;;;;;;;;;;24.70;99.90;;;24.21;47.41;100968.84;3530899;39;102387;-39
2021/08/04 10:51:35;;;;;;;;;;;24.90;99.90;;;23.75;45.02;100964.72;3531241;39;102183;-39
2021/08/04 10:54:02;;;;;;;;;;;24.60;96.80;;;23.95;45.07;100971.13;3530561;39;103250;-40
2021/08/04 10:56:50;;;;;;;;;;;24.70;97.40;;;24.12;44.74;100968.69;3530873;39;102193;-39
2021/08/04 10:59:27;;;;;;;;;;;24.80;99.30;;;24.04;44.80;100960.19;3526982;39;102272;-40
2021/08/04 11:02:01;;;;;;;;;;;24.80;96.80;;;23.91;44.74;100962.56;3531144;39;102493;-42
2021/08/04 11:04:28;;;;;;;;;;;24.80;96.60;;;23.98;49.67;100963.00;3530705;39;102338;-40
2021/08/04 11:07:08;;;;;;;;;;;24.70;99.90;;;23.98;44.47;100960.22;3530988;39;102411;-39
2021/08/04 11:09:38;;;;;;;;;;;24.70;96.60;;;23.68;44.36;100953.94;3530889;39;102928;-40
2021/08/04 11:12:08;;;;;;;;;;;24.70;95.20;;;23.45;44.49;100950.03;3531153;39;102239;-40